createdAt,value
2023-05-21T00:00:54.681Z,28.45
2023-05-21T00:03:32.291Z,29.45
2023-05-21T00:06:07.173Z,28.70
2023-05-21T00:08:41.394Z,28.48
2023-05-21T00:11:15.472Z,26.15
2023-05-21T00:13:50.381Z,28.10
2023-05-21T00:16:24.564Z,29.05
2023-05-21T00:19:02.739Z,25.17
2023-05-21T00:21:37.586Z,26.63
2023-05-21T00:24:12.443Z,22.73
2023-05-21T00:26:47.470Z,24.48
2023-05-21T00:29:22.682Z,23.33
2023-05-21T00:31:57.579Z,22.05
2023-05-21T00:34:35.201Z,23.27
2023-05-21T00:37:10.213Z,19.15
2023-05-21T00:39:44.487Z,21.57
2023-05-21T00:42:18.598Z,21.95
2023-05-21T00:44:54.522Z,21.60
2023-05-21T00:47:29.984Z,20.10
2023-05-21T00:50:07.697Z,20.05
2023-05-21T00:52:46.051Z,22.95
2023-05-21T00:55:20.437Z,19.92
2023-05-21T00:57:55.423Z,18.30
2023-05-21T01:00:29.601Z,20.07
2023-05-21T01:03:04.664Z,20.00
2023-05-21T01:05:45.433Z,20.35
2023-05-21T01:08:21.122Z,18.10
2023-05-21T01:10:55.375Z,17.85
2023-05-21T01:13:29.517Z,21.83
2023-05-21T01:16:04.458Z,21.00
2023-05-21T01:18:40.573Z,18.55
2023-05-21T01:21:18.685Z,18.63
2023-05-21T01:23:56.125Z,19.15
2023-05-21T01:26:30.837Z,19.25
2023-05-21T01:29:05.445Z,21.33
2023-05-21T01:31:45.724Z,16.80
2023-05-21T01:34:20.671Z,20.05
2023-05-21T01:36:59.024Z,18.70
2023-05-21T01:39:37.110Z,19.45
2023-05-21T01:42:13.300Z,17.90
2023-05-21T01:44:47.465Z,24.75
2023-05-21T01:47:22.440Z,22.80
2023-05-21T01:49:57.430Z,20.52
2023-05-21T01:52:32.581Z,20.92
2023-05-21T01:55:10.795Z,20.45
2023-05-21T01:57:45.520Z,20.05
2023-05-21T02:00:20.547Z,19.50
2023-05-21T02:02:55.568Z,19.23
2023-05-21T02:05:30.406Z,18.57
2023-05-21T02:08:05.759Z,17.27
2023-05-21T02:10:43.199Z,21.23
2023-05-21T02:13:21.185Z,16.23
2023-05-21T02:15:57.126Z,18.07
2023-05-21T02:18:32.457Z,17.35
2023-05-21T02:21:07.623Z,16.75
2023-05-21T02:23:42.927Z,18.08
2023-05-21T02:26:20.624Z,17.30
2023-05-21T02:28:55.976Z,16.90
2023-05-21T02:31:30.458Z,16.15
2023-05-21T02:34:05.541Z,17.60
2023-05-21T02:36:41.846Z,17.77
2023-05-21T02:39:14.535Z,17.25
2023-05-21T02:41:50.477Z,16.77
2023-05-21T02:44:25.489Z,16.00
2023-05-21T02:47:00.453Z,15.35
2023-05-21T02:49:35.370Z,16.95
2023-05-21T02:52:09.898Z,19.03
2023-05-21T02:54:45.065Z,19.52
2023-05-21T02:57:23.122Z,20.55
2023-05-21T02:59:59.462Z,20.50
2023-05-21T03:02:34.553Z,24.00
2023-05-21T03:05:12.382Z,20.20
2023-05-21T03:07:47.471Z,19.40
2023-05-21T03:10:22.816Z,16.53
2023-05-21T03:13:02.155Z,22.08
2023-05-21T03:15:37.141Z,18.20
2023-05-21T03:18:14.761Z,19.95
2023-05-21T03:20:49.846Z,24.83
2023-05-21T03:23:26.336Z,19.47
2023-05-21T03:26:02.894Z,22.25
2023-05-21T03:31:15.710Z,22.10
2023-05-21T03:33:56.317Z,23.90
2023-05-21T03:36:35.961Z,22.48
2023-05-21T03:39:11.751Z,20.75
2023-05-21T03:41:48.578Z,17.05
2023-05-21T03:44:33.713Z,18.70
2023-05-21T03:47:20.757Z,22.92
2023-05-21T03:49:56.804Z,19.25
2023-05-21T03:52:31.608Z,17.70
2023-05-21T03:55:10.022Z,20.67
2023-05-21T03:57:46.315Z,20.48
2023-05-21T04:00:25.383Z,19.55
2023-05-21T04:02:59.600Z,18.73
2023-05-21T04:05:35.063Z,19.25
2023-05-21T04:08:12.764Z,21.15
2023-05-21T04:10:46.700Z,18.80
2023-05-21T04:13:21.751Z,18.35
2023-05-21T04:16:00.279Z,18.53
2023-05-21T04:18:35.306Z,19.75
2023-05-21T04:23:44.732Z,19.30
2023-05-21T04:26:34.898Z,17.63
2023-05-21T04:29:10.236Z,18.40
2023-05-21T04:31:49.922Z,17.10
2023-05-21T04:34:25.264Z,17.17
2023-05-21T04:37:01.829Z,17.02
2023-05-21T04:39:38.071Z,17.80
2023-05-21T04:42:13.196Z,16.38
2023-05-21T04:47:30.722Z,15.00
2023-05-21T04:50:05.948Z,14.75
2023-05-21T04:52:42.094Z,15.50
2023-05-21T04:55:19.445Z,15.07
2023-05-21T04:57:56.215Z,14.63
2023-05-21T05:00:32.009Z,14.13
2023-05-21T05:03:12.704Z,17.40
2023-05-21T05:05:49.780Z,14.30
2023-05-21T05:08:24.937Z,13.50
2023-05-21T05:11:01.437Z,17.15
2023-05-21T05:13:37.014Z,13.95
2023-05-21T05:16:13.380Z,12.90
2023-05-21T05:18:53.347Z,15.85
2023-05-21T05:21:31.389Z,11.90
2023-05-21T05:24:08.394Z,12.45
2023-05-21T05:26:45.227Z,12.97
2023-05-21T05:29:21.007Z,11.40
2023-05-21T05:31:56.442Z,12.40
2023-05-21T05:34:36.383Z,11.02
2023-05-21T05:37:10.768Z,15.52
2023-05-21T05:39:48.270Z,12.48
2023-05-21T05:42:24.092Z,11.90
2023-05-21T05:45:02.103Z,13.07
2023-05-21T05:47:37.095Z,12.02
2023-05-21T05:50:16.857Z,12.10
2023-05-21T05:52:55.451Z,12.50
2023-05-21T05:55:30.039Z,10.80
2023-05-21T05:58:04.526Z,11.38
2023-05-21T06:00:42.375Z,12.80
2023-05-21T06:03:17.324Z,11.50
2023-05-21T06:05:55.708Z,11.85
2023-05-21T06:08:32.418Z,10.30
2023-05-21T06:11:08.735Z,11.50
2023-05-21T06:13:46.842Z,9.68
2023-05-21T06:16:23.290Z,12.23
2023-05-21T06:18:58.030Z,12.60
2023-05-21T06:21:35.299Z,17.83
2023-05-21T06:24:13.618Z,9.70
2023-05-21T06:26:49.682Z,9.80
2023-05-21T06:29:25.382Z,9.07
2023-05-21T06:34:35.364Z,11.50
2023-05-21T06:37:13.578Z,9.63
2023-05-21T06:39:51.942Z,9.15
2023-05-21T06:42:27.357Z,9.50
2023-05-21T06:45:22.172Z,9.20
2023-05-21T06:48:01.203Z,10.05
2023-05-21T06:50:35.769Z,8.33
2023-05-21T06:53:16.637Z,12.00
2023-05-21T06:55:55.174Z,10.75
2023-05-21T06:58:52.516Z,8.35
2023-05-21T07:01:28.044Z,11.70
2023-05-21T07:04:02.659Z,9.70
2023-05-21T07:06:39.102Z,12.40
2023-05-21T07:09:16.863Z,12.35
2023-05-21T07:11:53.465Z,10.02
2023-05-21T07:14:30.550Z,12.37
2023-05-21T07:17:06.580Z,8.45
2023-05-21T07:19:41.915Z,9.70
2023-05-21T07:22:18.511Z,11.05
2023-05-21T07:24:56.392Z,9.50
2023-05-21T07:27:32.375Z,9.05
2023-05-21T07:30:08.651Z,7.90
2023-05-21T07:35:18.343Z,9.73
2023-05-21T07:37:54.873Z,7.97
2023-05-21T07:40:33.445Z,10.70
2023-05-21T07:43:10.291Z,8.95
2023-05-21T07:45:48.885Z,12.45
2023-05-21T07:48:23.942Z,11.05
2023-05-21T07:51:04.250Z,9.50
2023-05-21T07:53:39.900Z,9.93
2023-05-21T07:56:21.956Z,8.77
2023-05-21T07:58:57.375Z,10.40
2023-05-21T08:01:34.027Z,9.27
2023-05-21T08:04:09.265Z,11.20
2023-05-21T08:06:45.250Z,9.20
2023-05-21T08:09:19.797Z,8.25
2023-05-21T08:11:58.150Z,9.70
2023-05-21T08:14:33.512Z,7.95
2023-05-21T08:17:08.975Z,7.83
2023-05-21T08:19:44.163Z,8.80
2023-05-21T08:22:19.747Z,8.23
2023-05-21T08:24:54.966Z,7.38
2023-05-21T08:27:33.019Z,6.37
2023-05-21T08:30:11.829Z,6.95
2023-05-21T08:32:47.310Z,8.73
2023-05-21T08:35:25.087Z,7.55
2023-05-21T08:38:22.820Z,6.30
2023-05-21T08:41:09.032Z,9.45
2023-05-21T08:43:50.173Z,9.35
2023-05-21T08:46:27.311Z,6.68
2023-05-21T08:49:03.902Z,6.85
2023-05-21T08:51:42.158Z,8.50
2023-05-21T08:54:18.725Z,7.75
2023-05-21T08:56:54.586Z,7.07
2023-05-21T08:59:34.039Z,9.85
2023-05-21T09:02:10.337Z,4.80
2023-05-21T09:04:50.000Z,8.73
2023-05-21T09:07:25.920Z,5.05
2023-05-21T09:10:38.995Z,7.47
2023-05-21T09:13:14.821Z,7.90
2023-05-21T09:15:54.543Z,7.75
2023-05-21T09:18:33.006Z,6.60
2023-05-21T09:21:30.050Z,8.93
2023-05-21T09:24:14.404Z,5.18
2023-05-21T09:26:50.171Z,6.80
2023-05-21T09:29:26.766Z,5.68
2023-05-21T09:32:09.589Z,7.63
2023-05-21T09:37:27.952Z,7.23
2023-05-21T09:40:05.355Z,5.22
2023-05-21T09:42:40.849Z,5.70
2023-05-21T09:47:55.939Z,6.43
2023-05-21T09:50:32.026Z,8.82
2023-05-21T09:53:07.431Z,7.70
2023-05-21T09:58:19.244Z,6.47
2023-05-21T10:00:54.624Z,4.22
2023-05-21T10:03:33.607Z,6.55
2023-05-21T10:06:10.534Z,6.07
2023-05-21T10:08:47.777Z,5.80
2023-05-21T10:11:24.411Z,5.00
2023-05-21T10:14:01.782Z,4.57
2023-05-21T10:16:38.226Z,7.97
2023-05-21T10:19:17.251Z,4.87
2023-05-21T10:21:52.865Z,6.50
2023-05-21T10:24:27.973Z,5.60
2023-05-21T10:27:04.717Z,5.95
2023-05-21T10:29:40.133Z,4.43
2023-05-21T10:34:54.460Z,5.28
2023-05-21T10:37:30.062Z,4.18
2023-05-21T10:40:05.985Z,4.63
2023-05-21T10:43:11.282Z,5.55
2023-05-21T10:45:57.181Z,6.70
2023-05-21T10:51:14.915Z,5.50
2023-05-21T10:54:06.280Z,5.88
2023-05-21T10:56:38.980Z,5.30
2023-05-21T10:59:22.596Z,8.20
2023-05-21T11:01:57.444Z,5.10
2023-05-21T11:04:33.555Z,10.67
2023-05-21T11:07:11.922Z,3.00
2023-05-21T11:09:49.354Z,5.90
2023-05-21T11:12:27.884Z,3.50
2023-05-21T11:15:01.890Z,4.43
2023-05-21T11:17:44.913Z,6.43
2023-05-21T11:20:21.554Z,8.57
2023-05-21T11:22:56.660Z,5.43
2023-05-21T11:25:32.684Z,5.22
2023-05-21T11:28:13.757Z,5.20
2023-05-21T11:30:48.014Z,3.60
2023-05-21T11:33:23.301Z,4.13
2023-05-21T11:36:02.307Z,8.45
2023-05-21T11:38:37.104Z,3.55
2023-05-21T11:41:14.555Z,5.25
2023-05-21T11:43:49.471Z,6.13
2023-05-21T11:46:24.208Z,11.40
2023-05-21T11:49:01.627Z,6.45
2023-05-21T11:51:33.552Z,9.00
2023-05-21T11:54:09.746Z,5.30
2023-05-21T11:56:48.747Z,8.23
2023-05-21T11:59:24.178Z,6.43
2023-05-21T12:04:37.013Z,4.13
2023-05-21T12:07:13.634Z,7.20
2023-05-21T12:09:49.954Z,6.55
2023-05-21T12:12:38.832Z,6.53
2023-05-21T12:15:27.907Z,8.25
2023-05-21T12:18:04.464Z,6.43
2023-05-21T12:20:41.957Z,21.00
2023-05-21T12:23:24.728Z,6.90
2023-05-21T12:26:03.894Z,18.80
2023-05-21T12:28:41.705Z,5.88
2023-05-21T12:31:19.443Z,5.60
2023-05-21T12:33:57.924Z,12.30
2023-05-21T12:36:39.101Z,77.20
2023-05-21T12:39:15.660Z,16.33
2023-05-21T12:41:51.091Z,5.70
2023-05-21T12:44:33.163Z,6.07
2023-05-21T12:47:11.088Z,7.78
2023-05-21T12:49:46.848Z,5.85
2023-05-21T12:52:22.681Z,2.67
2023-05-21T12:54:58.752Z,4.70
2023-05-21T12:57:39.487Z,5.68
2023-05-21T13:00:18.066Z,9.00
2023-05-21T13:02:52.792Z,6.70
2023-05-21T13:05:28.340Z,6.15
2023-05-21T13:10:39.716Z,4.85
2023-05-21T13:13:15.165Z,6.53
2023-05-21T13:15:53.078Z,4.28
2023-05-21T13:18:28.036Z,4.13
2023-05-21T13:21:03.173Z,7.93
2023-05-21T13:23:38.026Z,6.38
2023-05-21T13:26:12.993Z,4.95
2023-05-21T13:28:48.081Z,10.00
2023-05-21T13:31:25.370Z,5.40
2023-05-21T13:34:00.189Z,3.38
2023-05-21T13:36:34.916Z,4.00
2023-05-21T13:39:10.331Z,4.53
2023-05-21T13:44:19.020Z,5.03
2023-05-21T13:46:56.931Z,4.57
2023-05-21T13:49:32.036Z,3.25
2023-05-21T13:52:07.186Z,4.22
2023-05-21T13:54:43.069Z,8.30
2023-05-21T13:57:18.358Z,4.30
2023-05-21T13:59:53.262Z,4.38
2023-05-21T14:02:30.334Z,3.17
2023-05-21T14:05:04.940Z,4.85
2023-05-21T14:07:40.538Z,6.10
2023-05-21T14:10:15.818Z,5.72
2023-05-21T14:12:50.970Z,4.50
2023-05-21T14:15:27.337Z,5.95
2023-05-21T14:18:08.291Z,4.72
2023-05-21T14:20:43.156Z,2.67
2023-05-21T14:23:18.990Z,4.30
2023-05-21T14:25:54.080Z,3.75
2023-05-21T14:28:29.773Z,4.95
2023-05-21T14:31:05.264Z,4.33
2023-05-21T14:33:42.829Z,4.20
2023-05-21T14:36:18.569Z,3.92
2023-05-21T14:38:53.002Z,3.78
2023-05-21T14:41:28.863Z,3.75
2023-05-21T14:44:04.274Z,5.85
2023-05-21T14:46:38.899Z,3.30
2023-05-21T14:49:16.786Z,3.90
2023-05-21T14:51:51.800Z,6.32
2023-05-21T14:54:26.753Z,3.90
2023-05-21T14:57:02.182Z,5.33
2023-05-21T14:59:37.064Z,4.30
2023-05-21T15:02:12.248Z,3.90
2023-05-21T15:04:49.457Z,6.43
2023-05-21T15:07:24.279Z,10.80
2023-05-21T15:09:58.818Z,4.07
2023-05-21T15:12:36.615Z,4.40
2023-05-21T15:15:14.104Z,7.60
2023-05-21T15:17:49.037Z,3.30
2023-05-21T15:20:27.703Z,3.20
2023-05-21T15:25:41.224Z,4.60
2023-05-21T15:28:16.076Z,5.03
2023-05-21T15:30:51.584Z,5.30
2023-05-21T15:33:26.177Z,4.72
2023-05-21T15:36:03.715Z,11.30
2023-05-21T15:38:39.197Z,7.28
2023-05-21T15:41:14.216Z,5.53
2023-05-21T15:43:49.870Z,4.00
2023-05-21T15:46:25.106Z,2.78
2023-05-21T15:49:00.205Z,3.58
2023-05-21T15:51:38.924Z,3.53
2023-05-21T15:54:13.821Z,3.75
2023-05-21T15:56:49.179Z,7.20
2023-05-21T15:59:25.906Z,3.43
2023-05-21T16:02:00.022Z,4.87
2023-05-21T16:04:37.939Z,4.75
2023-05-21T16:07:11.946Z,3.95
2023-05-21T16:09:49.534Z,6.83
2023-05-21T16:12:24.609Z,4.25
2023-05-21T16:14:59.830Z,3.65
2023-05-21T16:17:35.020Z,5.37
2023-05-21T16:20:12.068Z,4.22
2023-05-21T16:22:47.452Z,5.87
2023-05-21T16:25:27.981Z,4.38
2023-05-21T16:28:02.160Z,4.72
2023-05-21T16:30:37.692Z,6.43
2023-05-21T16:35:48.809Z,3.67
2023-05-21T16:38:24.487Z,3.30
2023-05-21T16:43:34.922Z,3.67
2023-05-21T16:46:11.207Z,4.30
2023-05-21T16:48:46.697Z,4.72
2023-05-21T16:51:21.047Z,5.68
2023-05-21T16:53:56.011Z,3.85
2023-05-21T16:56:34.249Z,8.80
2023-05-21T16:59:09.066Z,5.65
2023-05-21T17:01:44.227Z,6.35
2023-05-21T17:04:21.600Z,3.35
2023-05-21T17:06:57.521Z,4.20
2023-05-21T17:09:32.338Z,4.55
2023-05-21T17:12:11.424Z,6.90
2023-05-21T17:14:46.067Z,3.83
2023-05-21T17:17:21.501Z,7.00
2023-05-21T17:19:56.746Z,5.75
2023-05-21T17:22:32.561Z,4.00
2023-05-21T17:25:10.365Z,5.07
2023-05-21T17:27:49.137Z,4.18
2023-05-21T17:30:24.234Z,4.95
2023-05-21T17:32:59.206Z,4.72
2023-05-21T17:35:34.872Z,2.53
2023-05-21T17:38:10.602Z,3.75
2023-05-21T17:40:45.121Z,3.13
2023-05-21T17:43:23.642Z,5.80
2023-05-21T17:45:58.034Z,4.30
2023-05-21T17:48:33.582Z,4.80
2023-05-21T17:53:41.239Z,3.53
2023-05-21T17:56:16.276Z,3.67
2023-05-21T17:58:55.801Z,6.23
2023-05-21T18:01:31.404Z,3.95
2023-05-21T18:04:06.424Z,5.38
2023-05-21T18:06:41.329Z,4.93
2023-05-21T18:09:16.656Z,2.83
2023-05-21T18:11:52.533Z,4.63
2023-05-21T18:14:31.354Z,4.63
2023-05-21T18:17:06.420Z,3.92
2023-05-21T18:19:41.543Z,5.82
2023-05-21T18:22:16.850Z,5.40
2023-05-21T18:24:52.368Z,3.38
2023-05-21T18:27:27.210Z,2.47
2023-05-21T18:30:06.853Z,6.00
2023-05-21T18:32:42.132Z,4.47
2023-05-21T18:35:17.074Z,3.28
2023-05-21T18:37:52.127Z,2.47
2023-05-21T18:40:30.592Z,4.80
2023-05-21T18:43:06.772Z,4.07
2023-05-21T18:45:44.528Z,4.72
2023-05-21T18:48:19.461Z,2.80
2023-05-21T18:50:53.804Z,6.85
2023-05-21T18:53:28.812Z,3.45
2023-05-21T18:56:05.143Z,8.20
2023-05-21T18:58:39.944Z,4.72
2023-05-21T19:01:18.471Z,6.00
2023-05-21T19:03:52.835Z,4.60
2023-05-21T19:06:28.267Z,3.87
2023-05-21T19:09:02.891Z,4.10
2023-05-21T19:11:37.960Z,8.73
2023-05-21T19:14:13.196Z,9.00
2023-05-21T19:16:51.449Z,6.55
2023-05-21T19:19:26.317Z,8.27
2023-05-21T19:22:01.416Z,7.33
2023-05-21T19:24:36.012Z,10.00
2023-05-21T19:27:10.924Z,9.53
2023-05-21T19:29:46.549Z,8.30
2023-05-21T19:34:58.834Z,6.07
2023-05-21T19:37:33.929Z,5.18
2023-05-21T19:40:10.682Z,5.22
2023-05-21T19:42:46.180Z,8.45
2023-05-21T19:45:22.103Z,6.32
2023-05-21T19:48:00.217Z,6.10
2023-05-21T19:50:35.570Z,7.85
2023-05-21T19:53:11.125Z,6.07
2023-05-21T19:55:46.821Z,6.55
2023-05-21T19:58:24.221Z,6.25
2023-05-21T20:01:03.963Z,5.88
2023-05-21T20:03:45.798Z,6.45
2023-05-21T20:06:22.130Z,6.93
2023-05-21T20:08:58.100Z,5.85
2023-05-21T20:11:33.238Z,5.53
2023-05-21T20:14:07.881Z,7.30
2023-05-21T20:16:43.012Z,4.22
2023-05-21T20:19:22.821Z,7.70
2023-05-21T20:21:58.384Z,5.53
2023-05-21T20:24:33.158Z,5.07
2023-05-21T20:27:08.180Z,4.95
2023-05-21T20:29:43.264Z,4.80
2023-05-21T20:32:17.885Z,4.75
2023-05-21T20:35:03.444Z,4.80
2023-05-21T20:37:39.297Z,5.03
2023-05-21T20:40:15.237Z,3.45
2023-05-21T20:42:52.594Z,5.07
2023-05-21T20:45:30.116Z,9.30
2023-05-21T20:48:06.914Z,4.80
2023-05-21T20:50:44.910Z,5.68
2023-05-21T20:53:20.630Z,10.25
2023-05-21T20:58:30.136Z,5.05
2023-05-21T21:01:07.818Z,4.20
2023-05-21T21:03:46.257Z,3.75
2023-05-21T21:06:26.413Z,6.93
2023-05-21T21:09:01.567Z,5.53
2023-05-21T21:11:36.325Z,4.63
2023-05-21T21:14:10.972Z,6.23
2023-05-21T21:16:52.249Z,9.00
2023-05-21T21:19:28.808Z,6.90
2023-05-21T21:22:09.316Z,4.70
2023-05-21T21:24:44.149Z,7.97
2023-05-21T21:27:19.348Z,4.03
2023-05-21T21:29:54.316Z,4.65
2023-05-21T21:32:29.987Z,6.60
2023-05-21T21:35:06.621Z,8.95
2023-05-21T21:37:39.178Z,5.72
2023-05-21T21:40:18.904Z,5.28
2023-05-21T21:42:54.542Z,8.38
2023-05-21T21:45:29.571Z,5.68
2023-05-21T21:48:05.189Z,6.00
2023-05-21T21:53:15.478Z,6.68
2023-05-21T21:55:54.742Z,6.63
2023-05-21T21:58:31.993Z,6.43
2023-05-21T22:01:08.644Z,8.50
2023-05-21T22:03:43.691Z,4.45
2023-05-21T22:06:18.241Z,7.83
2023-05-21T22:08:54.194Z,6.28
2023-05-21T22:11:32.714Z,7.68
2023-05-21T22:14:09.079Z,7.43
2023-05-21T22:16:45.353Z,6.80
2023-05-21T22:19:25.565Z,5.10
2023-05-21T22:22:00.895Z,6.22
2023-05-21T22:24:36.972Z,6.30
2023-05-21T22:27:19.008Z,6.72
2023-05-21T22:29:55.387Z,5.57
2023-05-21T22:32:33.311Z,9.60
2023-05-21T22:35:09.955Z,5.50
2023-05-21T22:37:45.773Z,5.60
2023-05-21T22:43:04.657Z,6.47
2023-05-21T22:45:41.101Z,7.10
2023-05-21T22:48:18.663Z,5.40
2023-05-21T22:50:53.962Z,5.30
2023-05-21T22:53:29.904Z,5.43
2023-05-21T22:56:06.064Z,5.30
2023-05-21T22:58:45.770Z,8.18
2023-05-21T23:01:23.132Z,5.72
2023-05-21T23:03:59.571Z,5.07
2023-05-21T23:06:36.973Z,4.47
2023-05-21T23:09:13.163Z,4.63
2023-05-21T23:11:52.515Z,6.10
2023-05-21T23:14:33.106Z,4.65
2023-05-21T23:17:10.280Z,4.50
2023-05-21T23:19:46.913Z,4.40
2023-05-21T23:22:23.978Z,5.72
2023-05-21T23:25:02.627Z,5.97
2023-05-21T23:27:38.271Z,5.22
2023-05-21T23:30:16.789Z,5.13
2023-05-21T23:32:58.357Z,7.93
2023-05-21T23:35:34.486Z,7.63
2023-05-21T23:38:10.448Z,5.10
2023-05-21T23:40:46.594Z,5.88
2023-05-21T23:43:23.413Z,4.80
2023-05-21T23:46:02.008Z,6.55
2023-05-21T23:48:39.213Z,5.90
2023-05-21T23:51:13.132Z,5.75
2023-05-21T23:53:50.182Z,5.80
2023-05-21T23:56:29.049Z,5.10
2023-05-21T23:59:06.862Z,7.65
